Time;durP1;ratioP1;P1;durP2;ratioP2;P2;SDS_P1;SDS_P2;PMS_P1;PMS_P2;Temp;Humidity;BMP_temperature;BMP_pressure;BME280_temperature;BME280_humidity;BME280_pressure;Samples;Min_cycle;Max_cycle;Signal;HPM_P1;HPM_P2
2024/01/29 00:00:10;;;;;;;43.97;17.35;;;0.50;99.90;;;;;;4968494;28;20038;-78
2024/01/29 00:02:39;;;;;;;43.80;18.70;;;0.30;99.90;;;;;;4970728;28;20046;-79
2024/01/29 00:05:08;;;;;;;50.30;19.35;;;0.50;99.90;;;;;;4968420;28;20107;-80
2024/01/29 00:07:37;;;;;;;45.80;20.02;;;-0.70;99.90;;;;;;4950834;28;20051;-80
2024/01/29 00:10:07;;;;;;;43.75;18.25;;;0.20;99.90;;;;;;4969257;28;20024;-78
2024/01/29 00:12:36;;;;;;;50.03;20.75;;;0.10;99.90;;;;;;4958191;28;20108;-78
2024/01/29 00:15:08;;;;;;;52.17;19.38;;;0.30;99.90;;;;;;4970417;28;20031;-78
2024/01/29 00:17:37;;;;;;;45.95;17.95;;;-1.00;99.90;;;;;;4954966;29;20052;-79
2024/01/29 00:20:07;;;;;;;48.75;18.15;;;0.40;99.90;;;;;;4968244;28;20040;-79
2024/01/29 00:22:37;;;;;;;46.42;19.77;;;0.10;99.90;;;;;;4967747;28;20046;-80
2024/01/29 00:25:07;;;;;;;55.55;20.05;;;0.30;99.90;;;;;;4955920;28;20023;-78
2024/01/29 00:27:36;;;;;;;55.30;19.88;;;0.00;99.90;;;;;;4974000;28;20047;-79
2024/01/29 00:30:06;;;;;;;47.75;18.60;;;0.10;99.90;;;;;;4977039;28;20069;-78
2024/01/29 00:32:36;;;;;;;52.85;19.88;;;0.10;99.90;;;;;;4979370;28;20031;-79
2024/01/29 00:35:06;;;;;;;51.42;21.15;;;0.10;99.90;;;;;;4957220;28;20040;-80
2024/01/29 00:37:35;;;;;;;47.53;19.08;;;-0.10;99.90;;;;;;4954590;28;20023;-78
2024/01/29 00:40:05;;;;;;;53.92;20.88;;;0.10;99.90;;;;;;4974793;28;20637;-78
2024/01/29 00:42:34;;;;;;;52.58;19.73;;;0.10;99.90;;;;;;4955418;29;20032;-80
2024/01/29 00:45:06;;;;;;;52.38;19.60;;;0.10;99.90;;;;;;4959341;29;20071;-78
2024/01/29 00:47:36;;;;;;;56.13;19.05;;;0.00;99.90;;;;;;4975479;28;20016;-79
2024/01/29 00:50:09;;;;;;;51.88;21.25;;;-0.10;99.90;;;;;;4954566;28;20057;-79
2024/01/29 00:52:39;;;;;;;49.63;19.05;;;-0.10;99.90;;;;;;4959747;28;20058;-79
2024/01/29 00:55:08;;;;;;;44.08;17.10;;;-1.00;99.90;;;;;;4969170;28;20031;-79
2024/01/29 00:57:38;;;;;;;44.83;16.67;;;0.00;99.90;;;;;;4958822;28;20157;-80
2024/01/29 01:00:09;;;;;;;49.15;18.88;;;0.60;99.90;;;;;;4974997;28;20039;-78
2024/01/29 01:02:39;;;;;;;50.70;18.80;;;0.40;99.90;;;;;;4951921;28;20063;-79
2024/01/29 01:05:09;;;;;;;45.78;18.25;;;1.70;99.90;;;;;;4973658;28;20252;-80
2024/01/29 01:07:38;;;;;;;47.08;17.92;;;0.00;99.90;;;;;;4952621;28;20079;-79
2024/01/29 01:10:08;;;;;;;50.28;19.67;;;0.00;99.90;;;;;;4969550;28;20035;-79
2024/01/29 01:12:38;;;;;;;51.13;19.02;;;-0.10;99.90;;;;;;4955343;29;20138;-79
2024/01/29 01:15:07;;;;;;;50.83;17.85;;;0.00;99.90;;;;;;4967860;28;20043;-78
2024/01/29 01:17:36;;;;;;;45.95;18.20;;;-0.80;99.90;;;;;;4951917;28;20054;-79
2024/01/29 01:20:08;;;;;;;53.05;18.05;;;1.60;99.90;;;;;;4960212;28;20043;-79
2024/01/29 01:22:37;;;;;;;49.83;19.50;;;-0.10;99.90;;;;;;4966446;28;20047;-79
2024/01/29 01:25:07;;;;;;;57.42;21.17;;;0.20;99.90;;;;;;4951040;28;20042;-79
2024/01/29 01:27:36;;;;;;;53.45;19.42;;;-0.10;99.90;;;;;;4963889;28;20047;-79
2024/01/29 01:30:07;;;;;;;46.10;19.25;;;-0.20;99.90;;;;;;4948344;28;20075;-79
2024/01/29 01:32:36;;;;;;;44.22;18.23;;;-0.10;99.90;;;;;;4949683;29;20047;-79
2024/01/29 01:35:06;;;;;;;45.83;17.73;;;-0.20;99.90;;;;;;4941470;29;20086;-78
2024/01/29 01:37:35;;;;;;;43.55;17.50;;;-0.20;99.90;;;;;;4968751;28;20050;-79
2024/01/29 01:40:05;;;;;;;45.30;17.95;;;0.40;99.90;;;;;;4940712;28;20050;-79
2024/01/29 01:42:34;;;;;;;44.10;15.80;;;-0.10;99.90;;;;;;4961532;28;20046;-79
2024/01/29 01:45:02;;;;;;;44.15;16.02;;;-0.20;99.90;;;;;;4960905;28;20051;-79
2024/01/29 01:47:31;;;;;;;46.58;16.13;;;-0.90;99.90;;;;;;4949881;28;20047;-79
2024/01/29 01:50:00;;;;;;;39.58;14.48;;;-0.30;99.90;;;;;;4964600;28;20043;-79
2024/01/29 01:52:30;;;;;;;47.67;16.15;;;0.40;99.90;;;;;;4945963;29;20071;-80
2024/01/29 01:54:59;;;;;;;48.47;16.42;;;-0.30;99.90;;;;;;4946453;28;20051;-79
2024/01/29 01:57:29;;;;;;;47.85;15.68;;;-0.30;99.90;;;;;;4951198;28;20062;-79
2024/01/29 01:59:57;;;;;;;48.78;16.27;;;-0.40;99.90;;;;;;4960569;28;20097;-79
2024/01/29 02:02:26;;;;;;;67.18;22.80;;;-0.30;99.90;;;;;;4963176;28;20051;-80
2024/01/29 02:04:54;;;;;;;56.28;18.75;;;-0.60;99.90;;;;;;4960016;28;20043;-79
2024/01/29 02:07:23;;;;;;;49.55;18.90;;;0.10;99.90;;;;;;4957126;28;20043;-79
2024/01/29 02:09:54;;;;;;;62.15;19.98;;;-0.50;99.90;;;;;;4958653;28;20071;-79
2024/01/29 02:12:22;;;;;;;55.45;18.33;;;-0.50;99.90;;;;;;4943010;29;20035;-79
2024/01/29 02:14:52;;;;;;;56.58;18.08;;;1.20;99.90;;;;;;4958722;28;20047;-79
2024/01/29 02:17:20;;;;;;;59.65;19.20;;;-0.30;99.90;;;;;;4962871;28;20050;-79
2024/01/29 02:19:49;;;;;;;45.75;16.17;;;-0.50;99.90;;;;;;4938907;29;20050;-79
2024/01/29 02:22:17;;;;;;;50.60;16.30;;;-0.40;99.90;;;;;;4941158;28;20039;-79
2024/01/29 02:24:47;;;;;;;42.50;15.00;;;-0.50;99.90;;;;;;4958548;28;20103;-79
2024/01/29 02:27:16;;;;;;;45.53;16.95;;;-0.50;99.90;;;;;;4942669;28;20079;-79
2024/01/29 02:29:44;;;;;;;44.08;15.43;;;-0.50;99.90;;;;;;4960974;28;20131;-79
2024/01/29 02:32:12;;;;;;;39.80;15.48;;;-0.50;99.90;;;;;;4954647;28;20055;-79
2024/01/29 02:34:41;;;;;;;39.65;14.77;;;-0.50;99.90;;;;;;4939006;29;20047;-79
2024/01/29 02:37:09;;;;;;;37.20;15.07;;;-0.50;99.90;;;;;;4956662;28;20039;-79
2024/01/29 02:39:38;;;;;;;35.35;13.52;;;-0.60;99.90;;;;;;4941417;29;20047;-79
2024/01/29 02:42:08;;;;;;;30.75;13.57;;;-0.60;99.90;;;;;;4942571;28;20039;-79
2024/01/29 02:44:36;;;;;;;40.13;15.32;;;-0.50;99.90;;;;;;4937811;29;20109;-79
2024/01/29 02:47:05;;;;;;;34.30;14.65;;;-0.60;99.90;;;;;;4953358;28;20067;-79
2024/01/29 02:49:34;;;;;;;43.17;14.90;;;-0.70;99.90;;;;;;4956966;28;20043;-78
2024/01/29 02:52:04;;;;;;;36.15;14.30;;;-0.60;99.90;;;;;;4956118;28;20063;-79
2024/01/29 02:54:32;;;;;;;29.95;12.88;;;-0.60;99.90;;;;;;4937119;29;20077;-79
2024/01/29 02:57:01;;;;;;;32.58;13.63;;;-0.60;99.90;;;;;;4955670;28;20059;-79
2024/01/29 02:59:31;;;;;;;38.28;13.85;;;-0.50;99.90;;;;;;4938915;28;20051;-79
2024/01/29 03:02:01;;;;;;;36.72;13.80;;;-0.60;99.90;;;;;;4956792;28;20047;-79
2024/01/29 03:04:29;;;;;;;34.80;12.63;;;-0.40;99.90;;;;;;4955760;28;20043;-79
2024/01/29 03:06:58;;;;;;;34.42;14.05;;;1.20;99.90;;;;;;4957894;28;20059;-79
2024/01/29 03:09:26;;;;;;;36.00;14.73;;;-0.30;99.90;;;;;;4952672;28;20073;-79
2024/01/29 03:11:55;;;;;;;29.58;12.32;;;-0.60;99.90;;;;;;4947375;29;20054;-79
2024/01/29 03:14:23;;;;;;;34.70;13.90;;;-0.10;99.90;;;;;;4937560;29;20114;-79
2024/01/29 03:16:53;;;;;;;35.35;13.90;;;-0.60;99.90;;;;;;4952818;28;20047;-79
2024/01/29 03:19:22;;;;;;;40.70;14.82;;;-0.50;99.90;;;;;;4931404;29;20111;-79
2024/01/29 03:21:50;;;;;;;43.85;16.35;;;-0.60;99.90;;;;;;4949392;29;20067;-79
2024/01/29 03:24:19;;;;;;;43.38;16.20;;;-0.60;99.90;;;;;;4932252;28;20046;-79
2024/01/29 03:26:47;;;;;;;46.78;16.92;;;-0.50;99.90;;;;;;4950389;28;20115;-78
2024/01/29 03:29:16;;;;;;;47.70;17.63;;;-0.50;99.90;;;;;;4944148;28;20050;-78
2024/01/29 03:31:44;;;;;;;47.10;16.95;;;-0.50;99.90;;;;;;4941387;29;20043;-79
2024/01/29 03:34:14;;;;;;;39.90;14.88;;;-0.50;99.90;;;;;;4951819;28;20050;-78
2024/01/29 03:36:44;;;;;;;37.58;14.27;;;0.60;99.90;;;;;;4936847;28;20090;-79
2024/01/29 03:39:13;;;;;;;35.90;15.52;;;-0.50;99.90;;;;;;4939530;28;20042;-79
2024/01/29 03:41:42;;;;;;;39.50;13.85;;;-0.10;99.90;;;;;;4949745;28;20079;-78
2024/01/29 03:44:10;;;;;;;34.38;12.13;;;0.10;99.90;;;;;;4940906;28;20071;-79
2024/01/29 03:46:39;;;;;;;31.77;12.25;;;-0.50;99.90;;;;;;4933719;28;20054;-79
2024/01/29 03:49:07;;;;;;;36.30;12.38;;;-0.40;99.90;;;;;;4954418;28;20082;-78
2024/01/29 03:51:37;;;;;;;32.35;12.45;;;-0.40;99.90;;;;;;4935198;28;20051;-78
2024/01/29 03:54:06;;;;;;;28.02;10.55;;;-0.40;99.90;;;;;;4946138;28;20055;-78
2024/01/29 03:56:34;;;;;;;29.52;12.32;;;-0.40;99.90;;;;;;4954154;28;20062;-78
2024/01/29 03:59:03;;;;;;;30.17;11.48;;;-0.40;99.90;;;;;;4947434;28;20070;-78
2024/01/29 04:01:31;;;;;;;29.98;11.93;;;-0.50;99.90;;;;;;4947059;28;20090;-77
2024/01/29 04:04:00;;;;;;;33.20;12.82;;;-0.50;99.90;;;;;;4951667;28;20545;-77
2024/01/29 04:06:28;;;;;;;33.67;12.23;;;-0.50;99.90;;;;;;4926161;29;20056;-78
2024/01/29 04:08:58;;;;;;;31.73;12.85;;;-0.50;99.90;;;;;;4934722;28;20053;-77
2024/01/29 04:11:27;;;;;;;32.95;11.32;;;-0.50;99.90;;;;;;4948623;28;20043;-77
2024/01/29 04:13:55;;;;;;;34.38;13.80;;;-0.50;99.90;;;;;;4942572;29;20138;-78
2024/01/29 04:16:24;;;;;;;30.45;12.57;;;-0.50;99.90;;;;;;4928019;29;20063;-77
2024/01/29 04:18:53;;;;;;;36.70;12.75;;;-0.50;99.90;;;;;;4928790;29;20043;-77
2024/01/29 04:21:21;;;;;;;34.53;12.80;;;-0.50;99.90;;;;;;4932912;28;20139;-77
2024/01/29 04:23:49;;;;;;;38.08;13.27;;;-0.50;99.90;;;;;;4926018;28;20063;-78
2024/01/29 04:26:19;;;;;;;37.28;13.13;;;-0.50;99.90;;;;;;4944250;28;20070;-77
2024/01/29 04:28:48;;;;;;;35.33;13.32;;;-0.60;99.90;;;;;;4951993;28;20118;-77
2024/01/29 04:31:16;;;;;;;31.73;11.25;;;-0.50;99.90;;;;;;4931408;29;20134;-77
2024/01/29 04:33:45;;;;;;;34.22;12.52;;;-0.50;99.90;;;;;;4928504;29;20133;-77
2024/01/29 04:36:15;;;;;;;32.75;11.93;;;-0.50;99.90;;;;;;4950024;28;20495;-77
2024/01/29 04:38:44;;;;;;;31.23;12.02;;;-0.50;99.90;;;;;;4951218;28;20506;-77
2024/01/29 04:41:19;;;;;;;30.08;12.05;;;-0.60;99.90;;;;;;4932576;28;20035;-77
2024/01/29 04:43:48;;;;;;;33.75;11.27;;;-0.60;99.90;;;;;;4945031;28;20455;-77
2024/01/29 04:46:16;;;;;;;29.92;12.50;;;-0.60;99.90;;;;;;4951171;28;20051;-77
2024/01/29 04:48:44;;;;;;;32.10;12.18;;;-0.60;99.90;;;;;;4934777;28;20047;-77
2024/01/29 04:51:13;;;;;;;27.35;11.48;;;-0.60;99.90;;;;;;4950513;28;20035;-77
2024/01/29 04:53:42;;;;;;;29.08;11.77;;;-0.70;99.90;;;;;;4949682;28;20066;-77
2024/01/29 04:56:09;;;;;;;29.67;10.65;;;-0.70;99.90;;;;;;4931361;29;20043;-77
2024/01/29 04:58:39;;;;;;;28.50;11.40;;;-0.70;99.90;;;;;;4927560;28;20118;-78
2024/01/29 05:01:08;;;;;;;31.83;11.15;;;-0.70;99.90;;;;;;4926347;29;20142;-77
2024/01/29 05:03:37;;;;;;;33.42;11.48;;;-0.80;99.90;;;;;;4949070;28;20040;-77
2024/01/29 05:06:06;;;;;;;28.90;11.50;;;-0.80;99.90;;;;;;4951262;29;20270;-73
2024/01/29 05:08:34;;;;;;;31.17;11.27;;;-0.80;99.90;;;;;;4946585;28;20114;-74
2024/01/29 05:11:03;;;;;;;35.47;12.95;;;-0.70;99.90;;;;;;4939553;28;20054;-74
2024/01/29 05:13:32;;;;;;;31.52;12.35;;;-0.80;99.90;;;;;;4929952;29;20039;-73
2024/01/29 05:16:02;;;;;;;33.22;13.18;;;-0.80;99.90;;;;;;4944343;28;20450;-73
2024/01/29 05:18:34;;;;;;;33.75;11.98;;;-0.80;99.90;;;;;;4948963;28;20055;-73
2024/01/29 05:21:03;;;;;;;33.35;12.57;;;-0.90;99.90;;;;;;4928746;28;20049;-74
2024/01/29 05:23:31;;;;;;;37.33;12.65;;;-0.90;99.90;;;;;;4928229;28;20116;-74
2024/01/29 05:26:00;;;;;;;31.27;12.18;;;-0.90;99.90;;;;;;4951003;28;20043;-73
2024/01/29 05:28:28;;;;;;;36.50;12.38;;;-0.90;99.90;;;;;;4950743;28;21447;-74
2024/01/29 05:30:56;;;;;;;39.58;14.52;;;-0.90;99.90;;;;;;4932534;29;20054;-74
2024/01/29 05:33:26;;;;;;;34.90;12.57;;;-0.90;99.90;;;;;;4933718;29;20047;-75
2024/01/29 05:35:56;;;;;;;35.45;12.80;;;-1.00;99.90;;;;;;4951098;28;20058;-74
2024/01/29 05:38:25;;;;;;;36.38;13.00;;;-1.00;99.90;;;;;;4929553;29;20106;-74
2024/01/29 05:40:54;;;;;;;38.50;13.52;;;-1.00;99.90;;;;;;4949472;28;20043;-74
2024/01/29 05:43:22;;;;;;;39.97;14.80;;;-1.00;99.90;;;;;;4949154;28;20043;-73
2024/01/29 05:45:50;;;;;;;37.22;13.85;;;-1.00;99.90;;;;;;4952029;28;20499;-73
2024/01/29 05:48:19;;;;;;;36.50;14.50;;;-1.10;99.90;;;;;;4947907;28;20054;-74
2024/01/29 05:50:49;;;;;;;36.45;13.65;;;-1.00;99.90;;;;;;4932799;29;20062;-73
2024/01/29 05:53:21;;;;;;;35.38;14.43;;;-1.10;99.90;;;;;;4945810;28;20051;-74
2024/01/29 05:55:50;;;;;;;35.55;14.50;;;-1.10;99.90;;;;;;4948659;28;20039;-75
2024/01/29 05:58:18;;;;;;;36.90;14.40;;;-1.10;99.90;;;;;;4935466;29;20043;-74
2024/01/29 06:00:47;;;;;;;38.67;14.27;;;-1.10;99.90;;;;;;4947062;28;20058;-74
2024/01/29 06:03:19;;;;;;;33.63;13.75;;;-1.10;99.90;;;;;;4931832;28;20051;-73
2024/01/29 06:05:49;;;;;;;43.55;14.35;;;-1.20;99.90;;;;;;4932421;29;20057;-73
2024/01/29 06:08:17;;;;;;;33.55;13.20;;;-1.20;99.90;;;;;;4945633;28;20098;-74
2024/01/29 06:10:45;;;;;;;37.50;13.35;;;-1.20;99.90;;;;;;4934333;28;20074;-74
2024/01/29 06:13:17;;;;;;;45.70;14.70;;;-1.00;99.90;;;;;;4927418;29;20035;-76
2024/01/29 06:15:45;;;;;;;41.47;14.98;;;-1.20;99.90;;;;;;4935547;28;20047;-79
2024/01/29 06:18:14;;;;;;;34.97;15.02;;;-1.20;99.90;;;;;;4949825;28;20047;-80
2024/01/29 06:20:43;;;;;;;42.85;15.70;;;0.90;99.90;;;;;;4950402;28;20048;-79
2024/01/29 06:23:14;;;;;;;60.95;21.45;;;-1.40;99.90;;;;;;4945260;29;20067;-79
2024/01/29 06:25:43;;;;;;;66.80;23.77;;;-0.50;99.90;;;;;;4967534;28;20059;-79
2024/01/29 06:28:12;;;;;;;49.97;18.83;;;-0.70;99.90;;;;;;4951295;28;20052;-79
2024/01/29 06:30:41;;;;;;;40.83;17.10;;;-1.30;99.90;;;;;;4943278;28;20051;-79
2024/01/29 06:33:13;;;;;;;42.95;17.67;;;-1.40;99.90;;;;;;4962704;28;20050;-79
2024/01/29 06:35:42;;;;;;;43.72;18.75;;;-1.30;99.90;;;;;;4960537;28;20180;-79
2024/01/29 06:38:12;;;;;;;46.03;17.70;;;-1.20;99.90;;;;;;4940113;28;20051;-79
2024/01/29 06:40:41;;;;;;;46.28;17.77;;;-1.30;99.90;;;;;;4948196;29;20054;-79
2024/01/29 06:43:09;;;;;;;49.22;18.02;;;-1.30;99.90;;;;;;4947752;29;20435;-79
2024/01/29 06:45:38;;;;;;;47.40;18.17;;;-1.20;99.90;;;;;;4949547;29;20051;-80
2024/01/29 06:48:08;;;;;;;48.40;18.52;;;-1.20;99.90;;;;;;4947415;28;20094;-79
2024/01/29 06:50:38;;;;;;;52.28;18.55;;;-1.20;99.90;;;;;;4966329;28;20071;-79
2024/01/29 06:53:07;;;;;;;47.30;18.85;;;-1.10;99.90;;;;;;4966159;28;20045;-79
2024/01/29 06:55:37;;;;;;;52.38;19.67;;;-1.20;99.90;;;;;;4966293;28;20043;-79
2024/01/29 06:58:07;;;;;;;50.72;18.13;;;-0.10;99.90;;;;;;4963364;28;20125;-79
2024/01/29 07:00:37;;;;;;;61.67;20.52;;;-1.00;99.90;;;;;;4965233;28;20082;-79
2024/01/29 07:03:06;;;;;;;60.88;21.33;;;-1.10;99.90;;;;;;4947882;28;20119;-79
2024/01/29 07:05:34;;;;;;;62.05;20.80;;;-1.10;99.90;;;;;;4962844;28;20039;-79
2024/01/29 07:08:03;;;;;;;58.08;21.70;;;-1.10;99.90;;;;;;4946143;28;20392;-79
2024/01/29 07:10:32;;;;;;;55.80;22.38;;;-0.90;99.90;;;;;;4945334;28;20099;-79
2024/01/29 07:13:02;;;;;;;55.17;22.10;;;-0.90;99.90;;;;;;4942797;29;20127;-80
2024/01/29 07:15:31;;;;;;;56.80;21.63;;;-0.20;99.90;;;;;;4962290;28;20071;-79
2024/01/29 07:18:00;;;;;;;62.55;23.80;;;-0.80;99.90;;;;;;4950178;28;20035;-79
2024/01/29 07:20:29;;;;;;;54.85;23.55;;;-1.60;99.90;;;;;;4962969;28;20058;-80
2024/01/29 07:22:58;;;;;;;68.72;24.17;;;-0.80;99.90;;;;;;4967821;28;20027;-80
2024/01/29 07:25:27;;;;;;;72.38;28.50;;;0.60;99.90;;;;;;4950034;28;20052;-80
2024/01/29 07:27:59;;;;;;;70.57;28.98;;;-1.60;99.90;;;;;;4955482;28;20042;-80
2024/01/29 07:30:32;;;;;;;80.55;28.40;;;0.60;99.90;;;;;;4973041;28;20026;-80
2024/01/29 07:33:02;;;;;;;88.25;32.30;;;-0.50;99.90;;;;;;4950204;29;20029;-78
2024/01/29 07:35:32;;;;;;;93.03;35.38;;;-1.70;99.90;;;;;;4972729;28;20031;-79
2024/01/29 07:38:02;;;;;;;92.40;37.33;;;-0.30;99.90;;;;;;4950732;28;20059;-79
2024/01/29 07:40:32;;;;;;;105.72;41.15;;;0.80;99.90;;;;;;4960126;28;20037;-79
2024/01/29 07:43:02;;;;;;;97.38;38.88;;;-1.10;99.90;;;;;;4955509;28;20047;-80
2024/01/29 07:45:32;;;;;;;105.07;39.70;;;-0.30;99.90;;;;;;4953929;28;20024;-80
2024/01/29 07:48:04;;;;;;;97.68;36.65;;;-0.20;99.90;;;;;;4969046;28;20071;-80
2024/01/29 07:50:33;;;;;;;88.00;32.17;;;0.00;99.90;;;;;;4957205;28;20043;-81
2024/01/29 07:53:02;;;;;;;95.57;35.05;;;0.10;99.90;;;;;;4954406;28;20141;-81
2024/01/29 07:55:33;;;;;;;96.53;36.63;;;-1.20;99.90;;;;;;4958598;28;20062;-81
2024/01/29 07:58:01;;;;;;;101.70;38.72;;;0.20;99.90;;;;;;4973688;28;20031;-81
2024/01/29 08:38:35;;;;;;;60.95;25.38;;;1.20;99.90;;;;;;6152364;22;1589189;-77
2024/01/29 08:41:05;;;;;;;57.45;23.52;;;1.20;99.90;;;;;;6198424;23;20112;-77
2024/01/29 08:43:36;;;;;;;44.95;19.20;;;1.30;99.90;;;;;;6199384;23;20017;-77
2024/01/29 08:46:05;;;;;;;34.80;14.30;;;1.40;99.90;;;;;;6198666;23;20024;-77
2024/01/29 08:48:34;;;;;;;34.85;14.13;;;1.50;99.90;;;;;;6199302;23;20028;-77
2024/01/29 08:51:03;;;;;;;41.15;17.23;;;1.50;99.90;;;;;;6199216;23;20081;-77
2024/01/29 08:53:35;;;;;;;33.92;14.13;;;1.60;99.90;;;;;;6198897;23;20103;-77
2024/01/29 08:56:07;;;;;;;36.53;16.88;;;1.70;99.90;;;;;;6198757;23;20055;-77
2024/01/29 08:58:36;;;;;;;39.03;16.15;;;1.80;99.90;;;;;;6196695;23;20107;-77
2024/01/29 09:03:47;;;;;;;37.60;15.10;;;2.00;99.90;;;;;;6199692;23;20025;-77
2024/01/29 09:06:18;;;;;;;29.08;13.63;;;2.10;99.90;;;;;;6199876;23;20020;-77
2024/01/29 09:08:48;;;;;;;31.52;14.55;;;2.20;99.90;;;;;;6198675;23;20025;-77
2024/01/29 09:11:16;;;;;;;33.08;14.93;;;2.30;99.90;;;;;;6198616;23;20052;-77
2024/01/29 09:13:45;;;;;;;30.13;14.30;;;2.30;99.90;;;;;;6198536;23;20020;-77
2024/01/29 09:16:13;;;;;;;36.35;15.30;;;2.40;99.90;;;;;;6199407;23;20091;-77
2024/01/29 09:18:42;;;;;;;33.63;15.43;;;2.50;99.90;;;;;;6198800;23;20024;-77
2024/01/29 09:21:11;;;;;;;44.63;15.60;;;2.50;99.90;;;;;;6198376;23;20052;-77
2024/01/29 09:23:39;;;;;;;29.38;13.43;;;2.60;99.90;;;;;;6198147;23;20025;-77
2024/01/29 09:26:09;;;;;;;37.10;18.13;;;2.70;99.90;;;;;;6198960;23;20067;-77
2024/01/29 09:28:41;;;;;;;25.67;11.30;;;2.80;99.90;;;;;;6192463;23;20025;-76
2024/01/29 09:31:11;;;;;;;23.58;11.70;;;2.80;99.90;;;;;;6188960;23;20040;-76
2024/01/29 09:33:40;;;;;;;28.50;11.15;;;2.90;99.90;;;;;;6190787;23;20528;-77
2024/01/29 09:36:09;;;;;;;21.27;9.35;;;3.00;99.90;;;;;;6191843;23;20468;-77
2024/01/29 09:38:38;;;;;;;23.88;8.93;;;3.00;99.90;;;;;;6189224;23;20108;-77
2024/01/29 09:41:07;;;;;;;18.48;8.88;;;2.30;99.90;;;;;;6190998;23;20031;-77
2024/01/29 09:43:41;;;;;;;20.25;7.18;;;3.10;99.90;;;;;;6167678;23;20025;-77
2024/01/29 09:46:14;;;;;;;23.08;8.48;;;3.20;99.90;;;;;;6191837;23;20454;-77
2024/01/29 09:48:47;;;;;;;14.82;6.85;;;2.60;99.90;;;;;;6194034;23;20077;-76
2024/01/29 09:51:20;;;;;;;17.20;6.60;;;3.40;99.90;;;;;;6192156;23;20017;-76
2024/01/29 09:53:54;;;;;;;12.25;4.88;;;3.40;99.90;;;;;;6191182;23;20109;-77
2024/01/29 09:56:23;;;;;;;13.40;4.88;;;3.50;99.90;;;;;;6191660;23;20056;-77
2024/01/29 09:58:53;;;;;;;9.50;3.83;;;3.50;99.90;;;;;;6190971;23;20032;-76
2024/01/29 10:01:23;;;;;;;13.98;5.20;;;3.60;99.90;;;;;;6190626;23;20025;-76
2024/01/29 10:03:55;;;;;;;9.60;4.00;;;3.60;99.90;;;;;;6141675;23;20024;-77
2024/01/29 10:06:24;;;;;;;11.00;3.78;;;3.60;99.90;;;;;;6191039;23;20076;-76
2024/01/29 10:08:53;;;;;;;10.85;4.22;;;3.70;99.90;;;;;;6192010;23;20048;-77
2024/01/29 10:11:22;;;;;;;11.27;4.15;;;3.80;99.90;;;;;;6193947;23;20016;-78
2024/01/29 10:14:00;;;;;;;11.23;3.72;;;3.90;99.90;;;;;;6190989;23;20024;-77
2024/01/29 10:16:30;;;;;;;10.93;4.60;;;3.90;99.90;;;;;;6193789;23;20055;-77
2024/01/29 10:19:01;;;;;;;12.50;4.93;;;3.90;99.90;;;;;;6193662;23;20020;-76
2024/01/29 10:21:37;;;;;;;30.02;14.68;;;4.00;99.90;;;;;;6193423;23;20025;-78
2024/01/29 10:24:13;;;;;;;18.08;8.18;;;4.00;99.90;;;;;;6192444;23;20052;-77
2024/01/29 10:26:42;;;;;;;15.23;5.90;;;4.10;99.90;;;;;;6192610;23;20021;-77
2024/01/29 10:29:16;;;;;;;11.20;4.78;;;4.20;99.90;;;;;;6194203;23;20013;-77
2024/01/29 10:31:44;;;;;;;13.73;5.57;;;4.20;99.90;;;;;;6192037;23;20028;-77
2024/01/29 10:34:13;;;;;;;13.45;4.55;;;4.10;99.90;;;;;;6117951;23;20071;-78
2024/01/29 10:36:43;;;;;;;9.63;4.65;;;4.30;99.90;;;;;;6192870;23;20032;-78
2024/01/29 10:39:13;;;;;;;9.75;3.78;;;4.40;99.90;;;;;;6137355;23;20462;-78
2024/01/29 10:41:44;;;;;;;14.25;6.90;;;4.40;99.90;;;;;;6164925;23;20025;-78
2024/01/29 10:44:19;;;;;;;17.08;6.32;;;4.50;99.90;;;;;;6139937;23;20025;-77
2024/01/29 10:46:49;;;;;;;16.63;5.13;;;4.60;99.90;;;;;;6138103;23;20013;-78
2024/01/29 10:49:28;;;;;;;17.42;5.88;;;4.60;99.90;;;;;;6138287;23;20056;-78
2024/01/29 10:52:01;;;;;;;15.00;6.47;;;4.70;99.90;;;;;;6138828;23;20044;-78
2024/01/29 10:54:33;;;;;;;20.60;6.32;;;4.80;99.90;;;;;;6138170;23;20363;-77
2024/01/29 10:57:03;;;;;;;10.20;4.45;;;4.80;99.90;;;;;;6164122;23;20490;-78
2024/01/29 10:59:36;;;;;;;17.75;6.30;;;4.70;99.90;;;;;;6135946;23;20367;-77
2024/01/29 11:02:06;;;;;;;16.38;5.15;;;4.80;99.90;;;;;;6135148;23;20025;-77
2024/01/29 11:04:35;;;;;;;12.50;4.65;;;4.90;99.90;;;;;;6135513;23;20017;-77
2024/01/29 11:07:11;;;;;;;12.52;5.03;;;4.90;99.90;;;;;;6135279;23;20013;-77
2024/01/29 11:09:48;;;;;;;12.93;5.13;;;4.80;99.90;;;;;;6135329;23;20025;-77
2024/01/29 11:12:18;;;;;;;15.20;5.80;;;4.90;99.90;;;;;;6134681;23;20013;-77
2024/01/29 11:14:59;;;;;;;13.60;5.80;;;4.90;99.90;;;;;;6135267;23;20395;-77
2024/01/29 11:17:29;;;;;;;13.57;6.00;;;5.00;99.90;;;;;;6135258;23;20021;-77
2024/01/29 11:20:01;;;;;;;15.68;6.57;;;5.00;99.90;;;;;;6134968;23;20462;-78
2024/01/29 11:22:37;;;;;;;13.00;5.10;;;4.90;99.90;;;;;;6135564;23;20025;-78
2024/01/29 11:25:08;;;;;;;12.18;4.90;;;4.90;99.90;;;;;;6135082;23;20022;-77
2024/01/29 11:27:38;;;;;;;14.18;5.18;;;4.90;99.90;;;;;;6135814;23;20505;-78
2024/01/29 11:30:18;;;;;;;12.65;5.78;;;5.00;99.90;;;;;;6135399;23;20112;-77
2024/01/29 11:32:48;;;;;;;13.85;5.22;;;4.90;99.90;;;;;;6135603;23;20076;-78
2024/01/29 11:35:19;;;;;;;11.90;4.75;;;4.90;99.90;;;;;;6135838;23;20108;-77
2024/01/29 11:38:07;;;;;;;14.88;6.13;;;5.00;99.90;;;;;;6161781;23;20044;-77
2024/01/29 11:40:40;;;;;;;16.98;4.95;;;5.10;99.90;;;;;;6191424;23;20447;-77
2024/01/29 11:43:14;;;;;;;14.98;5.97;;;5.20;99.90;;;;;;6190927;23;20025;-77
2024/01/29 11:45:47;;;;;;;12.68;5.32;;;5.10;99.90;;;;;;6190050;23;20036;-77
2024/01/29 11:48:17;;;;;;;14.13;5.65;;;5.20;99.90;;;;;;6190181;23;20021;-78
2024/01/29 11:50:53;;;;;;;13.55;5.97;;;5.10;99.90;;;;;;6142720;23;20025;-78
2024/01/29 11:53:25;;;;;;;16.38;6.80;;;5.20;99.90;;;;;;6191193;23;20020;-78
2024/01/29 11:55:55;;;;;;;17.77;6.30;;;5.20;99.90;;;;;;6190172;23;20027;-77
2024/01/29 11:58:25;;;;;;;14.93;5.35;;;5.20;99.90;;;;;;6192108;23;20075;-78
2024/01/29 12:00:56;;;;;;;11.48;4.85;;;5.30;99.90;;;;;;6192068;23;20101;-78
2024/01/29 12:03:31;;;;;;;13.18;5.15;;;5.40;99.90;;;;;;6191248;23;20079;-78
2024/01/29 12:06:01;;;;;;;31.50;10.88;;;5.40;99.90;;;;;;6191321;23;20025;-78
2024/01/29 12:08:30;;;;;;;15.20;5.38;;;5.40;99.90;;;;;;6196282;23;20099;-84
2024/01/29 12:11:03;;;;;;;16.65;5.78;;;5.30;99.90;;;;;;6201441;23;20032;-82
2024/01/29 12:13:35;;;;;;;16.52;6.93;;;5.30;99.90;;;;;;6200873;23;20044;-83
2024/01/29 12:16:08;;;;;;;10.57;4.25;;;5.30;99.90;;;;;;6202201;23;20021;-82
2024/01/29 12:18:40;;;;;;;9.25;3.78;;;5.50;99.90;;;;;;6200672;23;20009;-83
2024/01/29 12:21:09;;;;;;;13.90;5.30;;;5.30;99.90;;;;;;6202060;23;20021;-82
2024/01/29 12:23:40;;;;;;;14.65;6.60;;;5.40;99.90;;;;;;6200802;23;20027;-83
2024/01/29 12:26:11;;;;;;;18.33;6.65;;;5.40;99.90;;;;;;6201098;23;20032;-82
2024/01/29 12:28:42;;;;;;;21.65;8.00;;;5.50;99.90;;;;;;6201899;23;20021;-83
2024/01/29 12:31:12;;;;;;;18.30;6.07;;;5.40;99.90;;;;;;6200557;23;20028;-80
2024/01/29 12:33:47;;;;;;;14.40;5.40;;;5.20;99.90;;;;;;6201973;23;20253;-82
2024/01/29 12:36:22;;;;;;;12.07;4.97;;;5.50;99.90;;;;;;6201129;23;20041;-82
2024/01/29 12:39:00;;;;;;;12.25;4.40;;;5.50;99.90;;;;;;6129938;23;20033;-84
2024/01/29 12:41:35;;;;;;;9.43;3.20;;;5.50;99.90;;;;;;6195765;23;20024;-84
2024/01/29 12:44:17;;;;;;;9.80;3.97;;;5.50;99.90;;;;;;6168665;23;20187;-82
2024/01/29 12:47:07;;;;;;;10.87;3.67;;;5.60;99.90;;;;;;6145169;23;20108;-83
2024/01/29 12:49:37;;;;;;;10.40;4.22;;;5.50;99.90;;;;;;6146434;23;20049;-81
2024/01/29 12:52:10;;;;;;;11.30;3.90;;;5.90;99.90;;;;;;6114005;23;20070;-81
2024/01/29 12:54:40;;;;;;;12.93;5.03;;;5.30;99.90;;;;;;6113465;23;20078;-80
2024/01/29 12:57:10;;;;;;;13.80;5.30;;;7.40;99.90;;;;;;6084256;23;20034;-81
2024/01/29 12:59:41;;;;;;;9.13;4.13;;;5.40;99.90;;;;;;6060692;23;20019;-81
2024/01/29 13:02:15;;;;;;;7.75;3.35;;;5.30;99.90;;;;;;6060005;23;20023;-81
2024/01/29 13:04:45;;;;;;;14.60;5.78;;;5.30;99.90;;;;;;6061239;23;20086;-81
2024/01/29 13:07:15;;;;;;;14.18;5.25;;;5.40;99.90;;;;;;6037336;23;20019;-81
2024/01/29 13:09:49;;;;;;;10.32;3.88;;;5.50;99.90;;;;;;6037674;23;20026;-81
2024/01/29 13:12:21;;;;;;;15.45;6.20;;;5.40;99.90;;;;;;6084397;23;20026;-81
2024/01/29 13:14:52;;;;;;;22.85;8.13;;;5.40;99.90;;;;;;6060338;23;20027;-80
2024/01/29 13:17:26;;;;;;;9.13;3.78;;;5.40;99.90;;;;;;6084820;23;20026;-80
2024/01/29 13:19:55;;;;;;;14.98;6.47;;;5.00;99.90;;;;;;6059566;23;20023;-81
2024/01/29 13:22:26;;;;;;;12.75;5.75;;;5.30;99.90;;;;;;6117760;23;20049;-82
2024/01/29 13:24:58;;;;;;;12.65;5.15;;;5.40;99.90;;;;;;6143431;23;20025;-81
2024/01/29 13:27:28;;;;;;;12.65;4.90;;;5.50;99.90;;;;;;6118714;23;20022;-80
2024/01/29 13:29:57;;;;;;;9.57;4.30;;;5.40;99.90;;;;;;6117268;23;20018;-81